Terminal Aerodrome Forecast
Issued by NWS

Home | Current Version | Previous Version | Text Only | Print | Product List | Glossary On
Versions: 1 2 3 4 5 6 7 8 9 10 11 12 13 14 15 16 17 18
705
FTUS46 KSEW 252320
TAFBLI
TAF
KBLI 252320Z 2600/2624 16005KT P6SM BKN050
     FM260300 VRB03KT P6SM SCT050 BKN200
     FM261200 05006KT P6SM BKN070 OVC120
     FM261900 06009KT P6SM -RA BKN045 OVC070=

USA.gov is the U.S. government's official web portal to all federal, state and local government web resources and services.